createdAt,value
2018-04-30T00:00:15.383Z,9.13
2018-04-30T00:02:19.833Z,10.40
2018-04-30T00:04:25.041Z,9.13
2018-04-30T00:06:29.654Z,8.63
2018-04-30T00:08:34.602Z,9.10
2018-04-30T00:10:39.038Z,8.63
2018-04-30T00:12:44.245Z,8.13
2018-04-30T00:14:48.943Z,8.50
2018-04-30T00:16:53.367Z,8.10
2018-04-30T00:18:57.790Z,8.30
2018-04-30T00:21:02.226Z,8.60
2018-04-30T00:23:06.662Z,8.43
2018-04-30T00:25:11.547Z,9.40
2018-04-30T00:27:15.967Z,6.33
2018-04-30T00:29:20.177Z,7.13
2018-04-30T00:31:24.598Z,7.97
2018-04-30T00:33:29.039Z,7.73
2018-04-30T00:35:33.648Z,7.13
2018-04-30T00:37:38.138Z,7.93
2018-04-30T00:39:42.558Z,7.43
2018-04-30T00:41:47.073Z,6.90
2018-04-30T00:43:51.457Z,7.63
2018-04-30T00:45:55.914Z,8.00
2018-04-30T00:48:00.521Z,7.30
2018-04-30T00:50:04.963Z,7.30
2018-04-30T00:52:09.872Z,6.90
2018-04-30T00:56:43.815Z,6.83
2018-04-30T00:58:48.242Z,7.30
2018-04-30T01:00:52.682Z,7.70
2018-04-30T01:02:57.885Z,7.93
2018-04-30T01:05:02.379Z,8.13
2018-04-30T01:07:07.771Z,7.90
2018-04-30T01:09:12.966Z,6.80
2018-04-30T01:11:17.406Z,6.30
2018-04-30T01:13:21.841Z,7.80
2018-04-30T01:15:27.062Z,7.23
2018-04-30T01:17:31.486Z,7.80
2018-04-30T01:19:35.913Z,8.17
2018-04-30T01:21:41.140Z,7.83
2018-04-30T01:23:46.330Z,7.03
2018-04-30T01:25:50.770Z,7.60
2018-04-30T01:27:55.222Z,7.77
2018-04-30T01:29:59.314Z,8.00
2018-04-30T01:32:04.605Z,7.97
2018-04-30T01:34:08.721Z,8.10
2018-04-30T01:36:12.932Z,7.40
2018-04-30T01:38:17.059Z,7.53
2018-04-30T01:40:21.553Z,7.67
2018-04-30T01:42:25.943Z,8.30
2018-04-30T01:44:30.387Z,7.77
2018-04-30T01:46:34.905Z,6.97
2018-04-30T01:48:39.071Z,7.17
2018-04-30T01:50:44.286Z,7.77
2018-04-30T01:52:48.702Z,7.30
2018-04-30T01:54:54.012Z,7.57
2018-04-30T01:56:58.215Z,7.57
2018-04-30T01:59:02.662Z,7.73
2018-04-30T02:01:07.586Z,7.30
2018-04-30T02:03:11.684Z,7.20
2018-04-30T02:05:16.134Z,7.80
2018-04-30T02:07:21.327Z,7.57
2018-04-30T02:09:25.454Z,6.67
2018-04-30T02:11:29.949Z,9.33
2018-04-30T02:13:34.333Z,7.93
2018-04-30T02:15:38.438Z,7.30
2018-04-30T02:17:42.890Z,7.10
2018-04-30T02:19:47.615Z,6.90
2018-04-30T02:21:52.014Z,7.63
2018-04-30T02:23:56.446Z,8.53
2018-04-30T02:26:00.890Z,7.80
2018-04-30T02:28:04.985Z,7.27
2018-04-30T02:30:09.902Z,8.43
2018-04-30T02:32:14.420Z,8.17
2018-04-30T02:34:18.810Z,8.47
2018-04-30T02:36:23.257Z,9.00
2018-04-30T02:38:27.687Z,8.10
2018-04-30T02:40:32.188Z,8.20
2018-04-30T02:42:36.297Z,8.70
2018-04-30T02:44:40.713Z,7.63
2018-04-30T02:46:45.158Z,8.60
2018-04-30T02:48:49.444Z,8.03
2018-04-30T02:50:54.046Z,9.73
2018-04-30T02:52:58.483Z,8.80
2018-04-30T02:55:02.585Z,8.17
2018-04-30T02:57:06.898Z,7.93
2018-04-30T02:59:11.351Z,7.90
2018-04-30T03:01:15.786Z,8.67
2018-04-30T03:03:21.002Z,8.60
2018-04-30T03:05:25.621Z,8.40
2018-04-30T03:07:30.046Z,8.17
2018-04-30T03:09:34.476Z,7.30
2018-04-30T03:11:38.642Z,8.60
2018-04-30T03:13:43.062Z,8.43
2018-04-30T03:15:47.511Z,7.83
2018-04-30T03:17:52.014Z,7.60
2018-04-30T03:19:56.610Z,8.10
2018-04-30T03:22:01.047Z,7.40
2018-04-30T03:24:05.504Z,8.63
2018-04-30T03:26:10.371Z,8.03
2018-04-30T03:28:14.821Z,8.00
2018-04-30T03:30:19.254Z,8.33
2018-04-30T03:32:24.521Z,8.27
2018-04-30T03:34:29.268Z,9.90
2018-04-30T03:36:33.686Z,9.60
2018-04-30T03:38:38.110Z,7.60
2018-04-30T03:40:42.554Z,9.30
2018-04-30T03:42:46.982Z,8.40
2018-04-30T03:44:52.199Z,8.10
2018-04-30T03:46:56.834Z,7.43
2018-04-30T03:49:02.030Z,7.93
2018-04-30T03:51:06.490Z,7.87
2018-04-30T03:53:11.674Z,8.27
2018-04-30T03:55:16.110Z,8.60
2018-04-30T03:57:21.046Z,8.47
2018-04-30T03:59:25.479Z,8.30
2018-04-30T04:01:41.718Z,8.80
2018-04-30T04:03:57.191Z,8.60
2018-04-30T04:08:53.766Z,8.67
2018-04-30T04:10:58.195Z,7.13
2018-04-30T04:13:02.629Z,8.97
2018-04-30T04:15:07.271Z,9.70
2018-04-30T04:17:12.478Z,8.00
2018-04-30T04:19:17.123Z,9.10
2018-04-30T04:21:21.533Z,8.87
2018-04-30T04:23:25.730Z,8.60
2018-04-30T04:25:30.222Z,7.67
2018-04-30T04:27:34.646Z,9.87
2018-04-30T04:29:39.087Z,8.57
2018-04-30T04:31:43.526Z,9.60
2018-04-30T04:33:48.934Z,7.70
2018-04-30T04:35:53.362Z,9.17
2018-04-30T04:37:57.803Z,10.03
2018-04-30T04:40:02.295Z,8.30
2018-04-30T04:42:06.872Z,9.43
2018-04-30T04:44:11.302Z,9.97
2018-04-30T04:46:15.729Z,8.77
2018-04-30T04:48:20.361Z,9.13
2018-04-30T04:50:24.799Z,9.10
2018-04-30T04:52:29.213Z,9.23
2018-04-30T04:54:34.423Z,9.60
2018-04-30T04:56:39.059Z,8.93
2018-04-30T04:58:43.481Z,8.87
2018-04-30T05:00:48.710Z,9.00
2018-04-30T05:02:53.911Z,9.80
2018-04-30T05:04:58.327Z,9.70
2018-04-30T05:07:02.921Z,9.67
2018-04-30T05:09:07.367Z,10.57
2018-04-30T05:11:11.798Z,10.93
2018-04-30T05:13:16.266Z,9.40
2018-04-30T05:15:20.698Z,9.30
2018-04-30T05:17:25.193Z,9.60
2018-04-30T05:19:29.594Z,9.90
2018-04-30T05:21:34.810Z,9.30
2018-04-30T05:23:39.022Z,10.30
2018-04-30T05:25:43.473Z,9.77
2018-04-30T05:27:48.412Z,10.63
2018-04-30T05:29:52.839Z,9.70
2018-04-30T05:31:57.514Z,9.40
2018-04-30T05:34:01.958Z,10.27
2018-04-30T05:36:07.130Z,10.10
2018-04-30T05:38:11.701Z,9.90
2018-04-30T05:40:16.885Z,10.50
2018-04-30T05:42:21.328Z,10.17
2018-04-30T05:44:25.615Z,9.73
2018-04-30T05:46:30.238Z,10.17
2018-04-30T05:48:34.662Z,10.03
2018-04-30T05:50:39.214Z,10.20
2018-04-30T05:52:43.649Z,10.37
2018-04-30T05:54:48.846Z,8.57
2018-04-30T05:56:53.270Z,9.17
2018-04-30T05:58:57.490Z,9.20
2018-04-30T06:01:01.683Z,8.90
2018-04-30T06:03:05.782Z,9.43
2018-04-30T06:05:09.954Z,8.63
2018-04-30T06:07:14.055Z,9.53
2018-04-30T06:09:19.238Z,7.73
2018-04-30T06:11:23.695Z,9.40
2018-04-30T06:13:28.890Z,9.77
2018-04-30T06:15:33.325Z,9.00
2018-04-30T06:17:37.839Z,9.57
2018-04-30T06:19:42.100Z,8.00
2018-04-30T06:21:46.261Z,9.63
2018-04-30T06:23:50.742Z,9.10
2018-04-30T06:25:55.183Z,9.07
2018-04-30T06:27:59.625Z,10.63
2018-04-30T06:30:03.458Z,9.20
2018-04-30T06:32:07.626Z,8.07
2018-04-30T06:34:12.060Z,10.20
2018-04-30T06:36:16.682Z,10.37
2018-04-30T06:38:20.844Z,11.17
2018-04-30T06:40:24.993Z,10.20
2018-04-30T06:42:30.158Z,11.43
2018-04-30T06:44:34.549Z,10.50
2018-04-30T06:46:38.702Z,9.50
2018-04-30T06:48:42.866Z,11.00
2018-04-30T06:50:47.186Z,9.77
2018-04-30T06:52:53.121Z,10.13
2018-04-30T06:54:58.051Z,9.47
2018-04-30T06:57:02.506Z,8.90
2018-04-30T06:59:06.939Z,10.40
2018-04-30T07:01:11.090Z,10.00
2018-04-30T07:03:16.022Z,10.87
2018-04-30T07:05:21.054Z,9.97
2018-04-30T07:07:26.014Z,9.87
2018-04-30T07:09:30.278Z,10.00
2018-04-30T07:11:34.582Z,8.73
2018-04-30T07:13:38.689Z,9.67
2018-04-30T07:15:42.867Z,9.50
2018-04-30T07:17:47.101Z,9.80
2018-04-30T07:19:51.239Z,9.30
2018-04-30T07:21:56.146Z,9.93
2018-04-30T07:24:00.494Z,9.97
2018-04-30T07:26:04.926Z,9.20
2018-04-30T07:28:10.128Z,9.83
2018-04-30T07:30:15.148Z,9.63
2018-04-30T07:32:19.270Z,9.70
2018-04-30T07:34:23.609Z,9.13
2018-04-30T07:36:28.826Z,9.33
2018-04-30T07:38:33.737Z,9.20
2018-04-30T07:40:37.894Z,9.30
2018-04-30T07:42:42.293Z,9.40
2018-04-30T07:44:47.217Z,9.83
2018-04-30T07:46:51.642Z,9.20
2018-04-30T07:48:56.854Z,9.87
2018-04-30T07:51:01.772Z,10.47
2018-04-30T07:53:07.518Z,9.77
2018-04-30T07:55:11.964Z,9.43
2018-04-30T07:57:16.940Z,10.83
2018-04-30T07:59:22.312Z,9.40
2018-04-30T08:01:26.554Z,8.83
2018-04-30T08:03:31.746Z,10.37
2018-04-30T08:05:35.899Z,10.07
2018-04-30T08:07:41.030Z,10.30
2018-04-30T08:09:45.193Z,10.20
2018-04-30T08:11:49.370Z,10.80
2018-04-30T08:13:54.583Z,11.00
2018-04-30T08:15:58.750Z,11.40
2018-04-30T08:18:03.411Z,10.57
2018-04-30T08:20:07.562Z,10.40
2018-04-30T08:22:11.714Z,11.00
2018-04-30T08:24:16.643Z,10.90
2018-04-30T08:26:21.081Z,10.70
2018-04-30T08:28:25.546Z,10.90
2018-04-30T08:30:30.083Z,11.30
2018-04-30T08:32:34.213Z,10.70
2018-04-30T08:34:38.661Z,9.80
2018-04-30T08:36:42.976Z,10.80
2018-04-30T08:38:47.246Z,10.37
2018-04-30T08:40:51.707Z,11.97
2018-04-30T08:42:55.858Z,11.80
2018-04-30T08:45:00.402Z,10.20
2018-04-30T08:47:04.391Z,10.93
2018-04-30T08:49:08.554Z,11.60
2018-04-30T08:51:12.716Z,10.80
2018-04-30T08:53:16.890Z,11.77
2018-04-30T08:55:21.321Z,10.90
2018-04-30T08:57:25.859Z,11.03
2018-04-30T08:59:29.982Z,10.53
2018-04-30T09:01:34.425Z,11.00
2018-04-30T09:03:38.586Z,10.67
2018-04-30T09:05:42.759Z,11.80
2018-04-30T09:07:46.917Z,12.23
2018-04-30T09:09:51.350Z,11.77
2018-04-30T09:11:56.298Z,10.60
2018-04-30T09:14:00.729Z,10.40
2018-04-30T09:16:04.558Z,12.33
2018-04-30T09:18:08.731Z,11.83
2018-04-30T09:20:12.895Z,12.10
2018-04-30T09:22:17.332Z,13.53
2018-04-30T09:24:22.283Z,11.67
2018-04-30T09:26:26.710Z,12.50
2018-04-30T09:28:30.874Z,12.50
2018-04-30T09:30:35.349Z,12.23
2018-04-30T09:32:39.502Z,12.07
2018-04-30T09:34:44.095Z,11.90
2018-04-30T09:36:48.582Z,11.17
2018-04-30T09:38:52.738Z,11.70
2018-04-30T09:40:56.900Z,11.77
2018-04-30T09:43:02.116Z,12.50
2018-04-30T09:45:07.034Z,12.97
2018-04-30T09:47:10.903Z,11.17
2018-04-30T09:49:15.145Z,11.73
2018-04-30T09:51:19.439Z,11.73
2018-04-30T09:53:23.618Z,11.37
2018-04-30T09:55:28.809Z,11.87
2018-04-30T09:57:33.895Z,10.80
2018-04-30T09:59:38.166Z,9.27
2018-04-30T10:01:42.606Z,11.50
2018-04-30T10:03:46.765Z,9.23
2018-04-30T10:05:51.230Z,11.50
2018-04-30T10:07:55.399Z,13.73
2018-04-30T10:09:59.537Z,11.37
2018-04-30T10:12:04.260Z,13.77
2018-04-30T10:14:09.169Z,10.73
2018-04-30T10:16:13.605Z,8.93
2018-04-30T10:18:18.058Z,11.93
2018-04-30T10:20:23.250Z,11.30
2018-04-30T10:22:27.682Z,11.80
2018-04-30T10:24:32.881Z,9.83
2018-04-30T10:26:37.034Z,10.70
2018-04-30T10:28:42.235Z,14.03
2018-04-30T10:30:46.399Z,10.80
2018-04-30T10:32:51.632Z,11.00
2018-04-30T10:34:56.835Z,12.03
2018-04-30T10:37:01.264Z,17.63
2018-04-30T10:39:05.576Z,13.40
2018-04-30T10:41:09.750Z,12.83
2018-04-30T10:43:14.183Z,14.57
2018-04-30T10:45:18.779Z,13.33
2018-04-30T10:47:23.237Z,11.33
2018-04-30T10:49:27.415Z,11.40
2018-04-30T10:51:31.950Z,12.53
2018-04-30T10:53:36.265Z,10.30
2018-04-30T10:55:40.400Z,9.73
2018-04-30T10:57:44.554Z,11.60
2018-04-30T10:59:48.721Z,12.30
2018-04-30T11:01:52.891Z,10.03
2018-04-30T11:03:57.330Z,14.70
2018-04-30T11:06:02.264Z,8.60
2018-04-30T11:08:07.191Z,7.37
2018-04-30T11:10:12.101Z,10.93
2018-04-30T11:12:17.018Z,9.40
2018-04-30T11:14:21.182Z,9.70
2018-04-30T11:16:25.588Z,11.73
2018-04-30T11:18:30.702Z,10.80
2018-04-30T11:20:35.617Z,10.87
2018-04-30T11:22:40.571Z,8.07
2018-04-30T11:24:45.189Z,12.80
2018-04-30T11:26:50.294Z,12.80
2018-04-30T11:28:54.458Z,10.10
2018-04-30T11:30:58.624Z,9.23
2018-04-30T11:33:03.542Z,11.23
2018-04-30T11:35:07.905Z,13.73
2018-04-30T11:37:12.266Z,13.87
2018-04-30T11:39:16.617Z,12.87
2018-04-30T11:41:20.802Z,12.23
2018-04-30T11:43:25.258Z,10.00
2018-04-30T11:45:30.166Z,6.57
2018-04-30T11:47:34.713Z,9.60
2018-04-30T11:49:39.050Z,10.60
2018-04-30T11:51:43.075Z,10.60
2018-04-30T11:53:47.626Z,13.47
2018-04-30T11:55:52.307Z,16.00
2018-04-30T11:57:56.664Z,13.73
2018-04-30T12:00:01.863Z,20.53
2018-04-30T12:02:06.813Z,15.80
2018-04-30T12:04:11.173Z,15.83
2018-04-30T12:06:15.552Z,17.80
2018-04-30T12:08:20.678Z,15.60
2018-04-30T12:10:25.034Z,17.87
2018-04-30T12:12:29.394Z,13.67
2018-04-30T12:14:33.764Z,19.57
2018-04-30T12:16:38.205Z,16.77
2018-04-30T12:18:42.438Z,13.67
2018-04-30T12:20:47.053Z,17.63
2018-04-30T12:22:51.406Z,11.80
2018-04-30T12:24:56.230Z,19.07
2018-04-30T12:27:01.348Z,14.17
2018-04-30T12:29:05.723Z,19.90
2018-04-30T12:31:10.112Z,19.33
2018-04-30T12:33:15.223Z,13.17
2018-04-30T12:35:20.471Z,19.70
2018-04-30T12:37:24.594Z,14.50
2018-04-30T12:39:28.958Z,14.17
2018-04-30T12:41:33.129Z,18.00
2018-04-30T12:43:37.515Z,10.07
2018-04-30T12:45:41.884Z,10.30
2018-04-30T12:47:46.052Z,11.37
2018-04-30T12:49:50.159Z,11.30
2018-04-30T12:51:54.453Z,11.50
2018-04-30T12:53:59.651Z,9.37
2018-04-30T12:56:03.857Z,8.10
2018-04-30T12:58:08.934Z,5.97
2018-04-30T13:00:13.326Z,4.80
2018-04-30T13:02:17.741Z,9.30
2018-04-30T13:04:22.082Z,10.00
2018-04-30T13:06:26.709Z,5.10
2018-04-30T13:08:31.827Z,7.10
2018-04-30T13:10:36.970Z,5.27
2018-04-30T13:12:42.179Z,3.47
2018-04-30T13:14:46.294Z,5.00
2018-04-30T13:16:50.687Z,4.87
2018-04-30T13:18:54.811Z,4.80
2018-04-30T13:20:58.958Z,5.37
2018-04-30T13:23:03.368Z,6.30
2018-04-30T13:25:07.810Z,4.37
2018-04-30T13:27:11.954Z,4.33
2018-04-30T13:29:16.335Z,4.40
2018-04-30T13:31:20.478Z,4.23
2018-04-30T13:33:24.617Z,4.90
2018-04-30T13:35:29.555Z,4.50
2018-04-30T13:37:34.482Z,7.50
2018-04-30T13:39:39.402Z,3.50
2018-04-30T13:41:44.016Z,4.70
2018-04-30T13:43:49.858Z,4.60
2018-04-30T13:45:54.008Z,3.40
2018-04-30T13:47:58.163Z,4.23
2018-04-30T13:50:02.615Z,3.60
2018-04-30T13:52:07.625Z,4.03
2018-04-30T13:54:11.734Z,4.07
2018-04-30T13:56:16.872Z,3.63
2018-04-30T13:58:21.038Z,3.60
2018-04-30T14:00:26.242Z,4.27
2018-04-30T14:02:31.178Z,5.20
2018-04-30T14:04:35.326Z,4.47
2018-04-30T14:06:39.486Z,3.50
2018-04-30T14:08:44.622Z,3.70
2018-04-30T14:10:49.542Z,3.60
2018-04-30T14:12:53.702Z,2.37
2018-04-30T14:14:57.866Z,2.37
2018-04-30T14:17:02.778Z,2.20
2018-04-30T14:19:06.914Z,2.90
2018-04-30T14:21:11.090Z,2.60
2018-04-30T14:23:15.230Z,2.50
2018-04-30T14:25:20.145Z,2.20
2018-04-30T14:27:25.083Z,2.03
2018-04-30T14:29:29.998Z,1.70
2018-04-30T14:31:34.152Z,2.10
2018-04-30T14:33:38.535Z,2.23
2018-04-30T14:35:42.659Z,2.00
2018-04-30T14:37:46.799Z,1.53
2018-04-30T14:39:50.967Z,1.90
2018-04-30T14:41:55.873Z,1.67
2018-04-30T14:44:00.138Z,1.60
2018-04-30T14:46:03.971Z,1.40
2018-04-30T14:48:08.114Z,2.00
2018-04-30T14:50:13.049Z,1.10
2018-04-30T14:52:17.965Z,1.20
2018-04-30T14:54:22.925Z,1.37
2018-04-30T14:56:27.078Z,0.93
2018-04-30T14:58:31.242Z,1.53
2018-04-30T15:00:35.430Z,1.20
2018-04-30T15:02:40.444Z,1.30
2018-04-30T15:04:44.823Z,1.13
2018-04-30T15:06:49.071Z,1.23
2018-04-30T15:08:53.178Z,1.03
2018-04-30T15:10:57.391Z,1.10
2018-04-30T15:13:01.538Z,1.30
2018-04-30T15:15:05.318Z,1.30
2018-04-30T15:17:10.352Z,0.90
2018-04-30T15:19:15.998Z,1.17
2018-04-30T15:21:20.924Z,0.80
2018-04-30T15:23:25.247Z,1.40
2018-04-30T15:25:30.390Z,1.40
2018-04-30T15:27:34.541Z,1.40
2018-04-30T15:29:38.705Z,1.50
2018-04-30T15:31:43.626Z,1.00
2018-04-30T15:33:48.529Z,1.07
2018-04-30T15:35:52.762Z,1.30
2018-04-30T15:37:57.044Z,1.10
2018-04-30T15:40:01.472Z,1.27
2018-04-30T15:42:05.633Z,1.10
2018-04-30T15:44:10.303Z,1.60
2018-04-30T15:46:14.411Z,1.33
2018-04-30T15:48:18.213Z,1.23
2018-04-30T15:50:22.378Z,0.77
2018-04-30T15:52:26.531Z,1.03
2018-04-30T15:54:30.773Z,1.10
2018-04-30T15:56:34.869Z,0.90
2018-04-30T15:58:39.017Z,1.00
2018-04-30T16:00:43.171Z,1.17
2018-04-30T16:02:47.518Z,1.10
2018-04-30T16:04:52.435Z,0.93
2018-04-30T16:06:56.238Z,1.10
2018-04-30T16:09:01.162Z,1.30
2018-04-30T16:11:05.317Z,1.13
2018-04-30T16:13:09.229Z,1.20
2018-04-30T16:15:13.662Z,1.30
2018-04-30T16:17:17.818Z,1.30
2018-04-30T16:19:22.763Z,1.20
2018-04-30T16:21:27.183Z,1.20
2018-04-30T16:23:31.547Z,1.33
2018-04-30T16:25:35.461Z,1.70
2018-04-30T16:27:40.375Z,1.30
2018-04-30T16:29:44.829Z,1.33
2018-04-30T16:31:49.749Z,1.10
2018-04-30T16:33:54.247Z,1.17
2018-04-30T16:35:58.030Z,1.20
2018-04-30T16:38:02.175Z,1.20
2018-04-30T16:40:05.757Z,1.20
2018-04-30T16:42:10.210Z,1.20
2018-04-30T16:44:14.351Z,1.10
2018-04-30T16:46:18.505Z,1.10
2018-04-30T16:48:23.442Z,1.07
2018-04-30T16:50:28.355Z,1.10
2018-04-30T16:52:32.284Z,1.27
2018-04-30T16:54:37.610Z,1.07
2018-04-30T16:56:42.519Z,1.23
2018-04-30T16:58:46.678Z,1.10
2018-04-30T17:00:50.818Z,1.20
2018-04-30T17:02:54.971Z,2.13
2018-04-30T17:05:00.228Z,1.30
2018-04-30T17:07:04.381Z,0.90
2018-04-30T17:09:08.527Z,0.83
2018-04-30T17:11:13.640Z,0.80
2018-04-30T17:13:17.742Z,1.27
2018-04-30T17:15:22.173Z,1.30
2018-04-30T17:17:26.334Z,1.20
2018-04-30T17:19:30.497Z,0.97
2018-04-30T17:21:34.573Z,1.00
2018-04-30T17:23:39.014Z,1.10
2018-04-30T17:25:43.167Z,0.90
2018-04-30T17:27:47.310Z,0.80
2018-04-30T17:29:52.091Z,1.10
2018-04-30T17:31:57.006Z,0.90
2018-04-30T17:34:01.581Z,1.37
2018-04-30T17:36:05.854Z,1.60
2018-04-30T17:38:10.002Z,1.20
2018-04-30T17:40:14.150Z,1.20
2018-04-30T17:42:18.751Z,1.37
2018-04-30T17:44:23.071Z,1.30
2018-04-30T17:46:27.228Z,1.30
2018-04-30T17:48:31.392Z,1.80
2018-04-30T17:50:35.605Z,1.10
2018-04-30T17:52:39.715Z,1.37
2018-04-30T17:54:43.881Z,1.13
2018-04-30T17:56:48.062Z,1.50
2018-04-30T17:58:53.066Z,1.70
2018-04-30T18:00:58.140Z,1.40
2018-04-30T18:03:02.311Z,1.30
2018-04-30T18:05:06.444Z,1.20
2018-04-30T18:07:11.382Z,1.40
2018-04-30T18:09:15.864Z,1.30
2018-04-30T18:11:19.978Z,1.07
2018-04-30T18:13:25.634Z,1.07
2018-04-30T18:15:30.550Z,1.23
2018-04-30T18:17:34.707Z,3.10
2018-04-30T18:19:38.899Z,1.50
2018-04-30T18:21:43.806Z,1.33
2018-04-30T18:23:48.722Z,1.10
2018-04-30T18:25:52.882Z,1.17
2018-04-30T18:27:57.017Z,1.00
2018-04-30T18:30:01.166Z,1.10
2018-04-30T18:32:05.613Z,1.57
2018-04-30T18:34:09.786Z,1.33
2018-04-30T18:36:13.903Z,1.67
2018-04-30T18:38:18.067Z,1.63
2018-04-30T18:40:23.245Z,1.17
2018-04-30T18:42:27.402Z,1.20
2018-04-30T18:44:32.765Z,1.20
2018-04-30T18:46:38.051Z,1.20
2018-04-30T18:48:42.476Z,0.97
2018-04-30T18:50:46.613Z,1.40
2018-04-30T18:52:50.757Z,1.50
2018-04-30T18:54:54.906Z,1.30
2018-04-30T18:56:59.068Z,1.17
2018-04-30T18:59:03.105Z,0.90
2018-04-30T19:01:07.530Z,0.80
2018-04-30T19:03:12.482Z,1.30
2018-04-30T19:05:16.618Z,1.00
2018-04-30T19:07:20.774Z,1.17
2018-04-30T19:09:25.705Z,1.07
2018-04-30T19:11:29.897Z,1.23
2018-04-30T19:13:34.002Z,1.20
2018-04-30T19:15:38.146Z,1.27
2018-04-30T19:17:43.074Z,1.00
2018-04-30T19:19:48.169Z,1.00
2018-04-30T19:21:53.407Z,1.47
2018-04-30T19:23:57.532Z,0.90
2018-04-30T19:26:01.680Z,1.27
2018-04-30T19:28:05.837Z,0.97
2018-04-30T19:30:09.982Z,0.90
2018-04-30T19:32:14.159Z,1.10
2018-04-30T19:34:18.299Z,1.00
2018-04-30T19:36:23.207Z,1.17
2018-04-30T19:38:27.382Z,1.27
2018-04-30T19:40:31.526Z,1.60
2018-04-30T19:42:35.682Z,1.53
2018-04-30T19:44:40.990Z,1.40
2018-04-30T19:46:45.947Z,1.23
2018-04-30T19:48:50.306Z,1.30
2018-04-30T19:50:54.426Z,1.47
2018-04-30T19:52:58.578Z,1.13
2018-04-30T19:55:02.918Z,1.10
2018-04-30T19:57:06.768Z,1.47
2018-04-30T19:59:11.671Z,1.27
2018-04-30T20:01:16.090Z,1.30
2018-04-30T20:03:20.299Z,1.10
2018-04-30T20:05:24.414Z,1.20
2018-04-30T20:07:28.238Z,1.23
2018-04-30T20:09:33.149Z,1.13
2018-04-30T20:11:37.320Z,1.17
2018-04-30T20:13:41.464Z,1.00
2018-04-30T20:15:45.614Z,1.00
2018-04-30T20:17:49.782Z,2.00
2018-04-30T20:19:53.926Z,2.37
2018-04-30T20:21:58.089Z,5.43
2018-04-30T20:24:02.257Z,3.90
2018-04-30T20:26:06.409Z,3.30
2018-04-30T20:28:10.821Z,3.33
2018-04-30T20:30:15.139Z,2.40
2018-04-30T20:32:19.287Z,2.10
2018-04-30T20:34:24.218Z,1.93
2018-04-30T20:36:29.142Z,1.70
2018-04-30T20:38:34.067Z,1.90
2018-04-30T20:40:38.973Z,1.73
2018-04-30T20:42:42.902Z,1.60
2018-04-30T20:44:47.334Z,1.73
2018-04-30T20:46:51.750Z,1.60
2018-04-30T20:48:56.334Z,1.93
2018-04-30T20:51:00.719Z,2.10
2018-04-30T20:53:05.050Z,1.80
2018-04-30T20:55:09.367Z,1.93
2018-04-30T20:57:13.514Z,2.03
2018-04-30T20:59:18.421Z,2.37
2018-04-30T21:01:23.448Z,2.00
2018-04-30T21:03:27.218Z,2.07
2018-04-30T21:05:31.379Z,2.40
2018-04-30T21:07:36.315Z,2.10
2018-04-30T21:09:40.738Z,2.43
2018-04-30T21:11:45.159Z,2.47
2018-04-30T21:13:49.338Z,2.30
2018-04-30T21:15:53.523Z,2.37
2018-04-30T21:17:57.986Z,2.17
2018-04-30T21:20:02.916Z,2.17
2018-04-30T21:22:07.830Z,2.50
2018-04-30T21:24:12.353Z,2.70
2018-04-30T21:26:17.720Z,1.90
2018-04-30T21:28:22.639Z,2.10
2018-04-30T21:30:27.259Z,2.33
2018-04-30T21:32:32.179Z,1.73
2018-04-30T21:34:36.850Z,1.80
2018-04-30T21:36:41.122Z,1.70
2018-04-30T21:38:45.746Z,1.90
2018-04-30T21:40:49.891Z,1.60
2018-04-30T21:42:54.071Z,1.80
2018-04-30T21:44:58.210Z,1.67
2018-04-30T21:47:02.551Z,1.70
2018-04-30T21:49:06.726Z,1.40
2018-04-30T21:51:10.886Z,1.60
2018-04-30T21:53:15.325Z,1.63
2018-04-30T21:55:19.774Z,1.20
2018-04-30T21:57:23.922Z,1.53
2018-04-30T21:59:28.062Z,1.50
2018-04-30T22:01:32.214Z,1.50
2018-04-30T22:03:36.487Z,1.53
2018-04-30T22:05:40.930Z,1.40
2018-04-30T22:07:45.179Z,1.20
2018-04-30T22:09:50.345Z,1.60
2018-04-30T22:11:55.256Z,1.83
2018-04-30T22:13:59.673Z,1.30
2018-04-30T22:16:04.003Z,1.70
2018-04-30T22:18:08.425Z,2.20
2018-04-30T22:20:12.573Z,1.60
2018-04-30T22:22:17.022Z,1.30
2018-04-30T22:24:21.534Z,1.20
2018-04-30T22:26:25.919Z,1.60
2018-04-30T22:28:30.341Z,1.53
2018-04-30T22:30:34.782Z,1.50
2018-04-30T22:32:39.535Z,1.67
2018-04-30T22:34:43.970Z,1.30
2018-04-30T22:36:48.149Z,1.30
2018-04-30T22:38:52.766Z,1.20
2018-04-30T22:40:57.275Z,1.30
2018-04-30T22:43:01.865Z,1.20
2018-04-30T22:45:05.986Z,1.20
2018-04-30T22:47:10.126Z,1.40
2018-04-30T22:49:14.554Z,1.30
2018-04-30T22:51:19.561Z,1.10
2018-04-30T22:53:23.672Z,1.50
2018-04-30T22:55:28.085Z,1.30
2018-04-30T22:57:32.214Z,1.30
2018-04-30T22:59:36.715Z,1.00
2018-04-30T23:01:40.823Z,1.10
2018-04-30T23:03:45.342Z,1.23
2018-04-30T23:05:50.518Z,1.10
2018-04-30T23:07:54.948Z,1.20
2018-04-30T23:10:00.318Z,1.20
2018-04-30T23:12:04.402Z,1.23
2018-04-30T23:14:09.590Z,1.20
2018-04-30T23:16:14.094Z,1.40
2018-04-30T23:18:18.478Z,1.40
2018-04-30T23:20:22.916Z,1.80
2018-04-30T23:22:27.222Z,1.70
2018-04-30T23:24:31.362Z,1.30
2018-04-30T23:26:35.802Z,1.37
2018-04-30T23:28:40.990Z,1.20
2018-04-30T23:30:45.421Z,1.00
2018-04-30T23:32:50.066Z,1.30
2018-04-30T23:34:54.511Z,1.03
2018-04-30T23:36:59.785Z,1.40
2018-04-30T23:39:03.438Z,1.00
2018-04-30T23:41:08.631Z,1.27
2018-04-30T23:43:13.054Z,0.90
2018-04-30T23:45:17.498Z,1.03
2018-04-30T23:47:21.914Z,1.00
2018-04-30T23:49:26.403Z,1.20
2018-04-30T23:51:30.794Z,1.00
2018-04-30T23:53:35.225Z,1.00
2018-04-30T23:55:39.651Z,0.80
2018-04-30T23:57:44.094Z,1.17
2018-04-30T23:59:48.534Z,1.10
